createdAt,value
2018-04-13T00:00:24.924Z,10.30
2018-04-13T00:02:52.367Z,10.20
2018-04-13T00:05:19.787Z,10.20
2018-04-13T00:07:47.998Z,10.10
2018-04-13T00:10:15.435Z,10.10
2018-04-13T00:12:42.886Z,10.10
2018-04-13T00:15:11.128Z,10.00
2018-04-13T00:17:38.570Z,10.00
2018-04-13T00:20:07.003Z,10.00
2018-04-13T00:22:35.206Z,9.70
2018-04-13T00:25:02.649Z,9.70
2018-04-13T00:27:30.094Z,9.70
2018-04-13T00:29:57.523Z,9.80
2018-04-13T00:32:24.971Z,10.00
2018-04-13T00:34:52.415Z,10.00
2018-04-13T00:37:19.859Z,9.80
2018-04-13T00:39:47.326Z,9.80
2018-04-13T00:42:14.768Z,9.80
2018-04-13T00:44:42.213Z,9.80
2018-04-13T00:47:09.627Z,9.70
2018-04-13T00:49:37.118Z,9.80
2018-04-13T00:52:04.547Z,9.80
2018-04-13T00:54:32.764Z,9.80
2018-04-13T00:57:00.194Z,9.70
2018-04-13T00:59:43.204Z,9.80
2018-04-13T01:02:11.394Z,9.70
2018-04-13T01:04:38.835Z,9.70
2018-04-13T01:07:07.037Z,9.70
2018-04-13T01:09:34.524Z,9.70
2018-04-13T01:12:01.956Z,9.70
2018-04-13T01:14:29.391Z,9.60
2018-04-13T01:16:57.600Z,9.50
2018-04-13T01:19:25.036Z,9.40
2018-04-13T01:21:52.457Z,9.40
2018-04-13T01:24:19.894Z,9.50
2018-04-13T01:26:47.336Z,9.40
2018-04-13T01:29:14.853Z,9.10
2018-04-13T01:31:42.237Z,8.90
2018-04-13T01:34:10.548Z,9.10
2018-04-13T01:36:37.990Z,9.20
2018-04-13T01:39:06.207Z,9.30
2018-04-13T01:41:34.407Z,9.10
2018-04-13T01:44:01.875Z,9.10
2018-04-13T01:46:29.307Z,9.20
2018-04-13T01:48:57.515Z,9.40
2018-04-13T01:51:24.943Z,9.40
2018-04-13T01:53:52.396Z,9.30
2018-04-13T01:56:20.523Z,9.40
2018-04-13T01:58:47.997Z,9.40
2018-04-13T02:01:15.435Z,9.30
2018-04-13T02:03:43.076Z,9.40
2018-04-13T02:06:10.507Z,9.40
2018-04-13T02:08:37.961Z,9.40
2018-04-13T02:11:06.151Z,9.30
2018-04-13T02:13:33.582Z,9.30
2018-04-13T02:16:01.807Z,9.40
2018-04-13T02:18:30.377Z,9.40
2018-04-13T02:20:58.560Z,9.30
2018-04-13T02:23:25.987Z,9.30
2018-04-13T02:25:53.427Z,9.30
2018-04-13T02:28:21.630Z,9.20
2018-04-13T02:30:49.072Z,9.20
2018-04-13T02:33:16.507Z,9.20
2018-04-13T02:35:44.732Z,9.20
2018-04-13T02:41:05.431Z,9.30
2018-04-13T02:43:32.859Z,9.30
2018-04-13T02:46:00.314Z,9.30
2018-04-13T02:48:27.764Z,9.30
2018-04-13T02:50:55.192Z,9.30
2018-04-13T02:53:22.643Z,9.30
2018-04-13T02:55:50.085Z,9.40
2018-04-13T02:58:17.514Z,9.30
2018-04-13T03:00:45.703Z,9.30
2018-04-13T03:03:13.144Z,9.30
2018-04-13T03:05:41.345Z,9.30
2018-04-13T03:08:08.769Z,9.30
2018-04-13T03:10:36.974Z,9.20
2018-04-13T03:13:04.407Z,9.20
2018-04-13T03:15:32.617Z,9.20
2018-04-13T03:18:00.050Z,9.10
2018-04-13T03:20:28.251Z,9.30
2018-04-13T03:22:59.531Z,9.20
2018-04-13T03:25:26.991Z,9.20
2018-04-13T03:27:54.451Z,9.20
2018-04-13T03:30:21.968Z,9.20
2018-04-13T03:32:49.371Z,9.20
2018-04-13T03:35:17.230Z,9.20
2018-04-13T03:37:44.653Z,9.20
2018-04-13T03:40:12.105Z,9.10
2018-04-13T03:42:39.534Z,8.80
2018-04-13T03:45:07.060Z,8.80
2018-04-13T03:47:34.504Z,9.00
2018-04-13T03:50:01.943Z,9.00
2018-04-13T03:52:29.393Z,9.00
2018-04-13T03:54:56.834Z,9.00
2018-04-13T03:57:24.324Z,9.00
2018-04-13T03:59:51.779Z,9.00
2018-04-13T04:02:19.215Z,9.00
2018-04-13T04:04:46.700Z,9.00
2018-04-13T04:07:14.139Z,8.80
2018-04-13T04:09:41.583Z,8.80
2018-04-13T04:12:09.026Z,8.80
2018-04-13T04:14:36.456Z,8.80
2018-04-13T04:17:04.671Z,9.00
2018-04-13T04:19:44.105Z,9.00
2018-04-13T04:22:23.755Z,9.00
2018-04-13T04:25:03.295Z,8.90
2018-04-13T04:27:31.519Z,9.00
2018-04-13T04:29:58.970Z,9.00
2018-04-13T04:32:26.435Z,9.00
2018-04-13T04:34:53.874Z,9.20
2018-04-13T04:37:22.283Z,9.10
2018-04-13T04:39:50.484Z,9.10
2018-04-13T04:42:17.936Z,9.10
2018-04-13T04:44:45.372Z,9.10
2018-04-13T04:47:13.575Z,9.10
2018-04-13T04:49:41.011Z,9.10
2018-04-13T04:52:09.228Z,9.10
2018-04-13T04:54:36.699Z,9.10
2018-04-13T04:57:04.146Z,9.00
2018-04-13T04:59:31.579Z,9.00
2018-04-13T05:01:59.042Z,9.00
2018-04-13T05:04:26.469Z,9.10
2018-04-13T05:06:54.697Z,9.10
2018-04-13T05:09:22.137Z,9.10
2018-04-13T05:11:49.578Z,9.10
2018-04-13T05:14:17.023Z,9.10
2018-04-13T05:16:45.224Z,9.00
2018-04-13T05:19:12.673Z,8.90
2018-04-13T05:21:40.123Z,9.00
2018-04-13T05:24:07.560Z,9.00
2018-04-13T05:26:35.764Z,9.10
2018-04-13T05:29:03.200Z,9.10
2018-04-13T05:31:31.406Z,9.30
2018-04-13T05:33:58.878Z,9.20
2018-04-13T05:36:27.131Z,9.40
2018-04-13T05:38:54.600Z,9.40
2018-04-13T05:41:22.044Z,9.30
2018-04-13T05:43:49.501Z,9.40
2018-04-13T05:46:16.942Z,9.40
2018-04-13T05:48:45.155Z,9.50
2018-04-13T05:51:12.586Z,9.50
2018-04-13T05:53:40.048Z,9.60
2018-04-13T05:56:07.481Z,9.60
2018-04-13T05:58:35.714Z,9.70
2018-04-13T06:01:03.175Z,9.70
2018-04-13T06:03:30.614Z,9.70
2018-04-13T06:05:58.057Z,9.80
2018-04-13T06:08:25.520Z,9.90
2018-04-13T06:10:52.959Z,10.00
2018-04-13T06:13:20.437Z,10.10
2018-04-13T06:15:47.877Z,10.10
2018-04-13T06:18:15.311Z,10.20
2018-04-13T06:20:43.551Z,10.40
2018-04-13T06:23:11.008Z,10.30
2018-04-13T06:25:38.447Z,10.40
2018-04-13T06:28:05.914Z,10.40
2018-04-13T06:30:33.375Z,10.50
2018-04-13T06:33:00.826Z,10.60
2018-04-13T06:35:28.460Z,10.60
2018-04-13T06:37:55.917Z,10.60
2018-04-13T06:40:23.374Z,10.80
2018-04-13T06:42:50.861Z,10.80
2018-04-13T06:45:18.303Z,10.90
2018-04-13T06:47:45.759Z,11.00
2018-04-13T06:50:13.221Z,11.10
2018-04-13T06:52:40.666Z,11.20
2018-04-13T06:55:08.120Z,11.30
2018-04-13T06:57:35.561Z,11.40
2018-04-13T07:00:03.777Z,11.50
2018-04-13T07:02:31.230Z,11.50
2018-04-13T07:04:58.689Z,11.60
2018-04-13T07:07:26.127Z,11.60
2018-04-13T07:09:53.573Z,11.70
2018-04-13T07:12:21.012Z,11.70
2018-04-13T07:14:49.236Z,11.70
2018-04-13T07:17:16.699Z,11.70
2018-04-13T07:19:44.212Z,11.60
2018-04-13T07:22:11.683Z,11.60
2018-04-13T07:24:39.153Z,11.60
2018-04-13T07:27:06.599Z,11.70
2018-04-13T07:29:34.042Z,11.80
2018-04-13T07:32:01.512Z,11.90
2018-04-13T07:34:28.977Z,11.90
2018-04-13T07:36:56.419Z,11.90
2018-04-13T07:39:23.911Z,12.00
2018-04-13T07:41:52.070Z,12.00
2018-04-13T07:44:19.517Z,12.00
2018-04-13T07:46:46.980Z,12.10
2018-04-13T07:49:14.415Z,12.00
2018-04-13T07:51:41.920Z,12.00
2018-04-13T07:54:09.393Z,12.10
2018-04-13T07:56:36.831Z,12.10
2018-04-13T07:59:04.291Z,12.20
2018-04-13T08:01:31.735Z,12.10
2018-04-13T08:03:59.221Z,12.10
2018-04-13T08:06:26.822Z,12.20
2018-04-13T08:08:54.103Z,12.20
2018-04-13T08:11:21.563Z,12.20
2018-04-13T08:13:50.027Z,12.30
2018-04-13T08:16:17.572Z,12.30
2018-04-13T08:18:45.771Z,12.40
2018-04-13T08:21:13.220Z,12.40
2018-04-13T08:23:40.659Z,12.40
2018-04-13T08:26:08.099Z,12.40
2018-04-13T08:28:36.331Z,12.60
2018-04-13T08:31:03.765Z,12.60
2018-04-13T08:33:31.217Z,12.70
2018-04-13T08:35:58.663Z,12.80
2018-04-13T08:38:26.895Z,13.00
2018-04-13T08:40:54.331Z,13.00
2018-04-13T08:43:21.813Z,13.00
2018-04-13T08:45:49.232Z,13.20
2018-04-13T08:48:16.671Z,13.20
2018-04-13T08:50:44.111Z,13.20
2018-04-13T08:53:12.335Z,13.20
2018-04-13T08:55:39.790Z,13.30
2018-04-13T08:58:07.250Z,13.20
2018-04-13T09:00:34.676Z,13.20
2018-04-13T09:03:02.149Z,13.20
2018-04-13T09:05:29.633Z,13.20
2018-04-13T09:07:57.095Z,13.20
2018-04-13T09:10:24.526Z,13.10
2018-04-13T09:12:51.997Z,13.10
2018-04-13T09:15:19.431Z,13.00
2018-04-13T09:17:46.865Z,13.00
2018-04-13T09:20:15.075Z,12.90
2018-04-13T09:22:42.536Z,12.90
2018-04-13T09:25:09.983Z,12.90
2018-04-13T09:27:37.424Z,12.80
2018-04-13T09:30:04.883Z,12.80
2018-04-13T09:32:32.318Z,12.70
2018-04-13T09:35:00.546Z,12.70
2018-04-13T09:37:28.040Z,12.60
2018-04-13T09:39:55.429Z,12.60
2018-04-13T09:42:22.932Z,12.60
2018-04-13T09:44:50.375Z,12.50
2018-04-13T09:47:17.812Z,12.50
2018-04-13T09:49:45.258Z,12.40
2018-04-13T09:52:12.729Z,12.30
2018-04-13T09:54:40.162Z,12.10
2018-04-13T09:57:08.371Z,11.90
2018-04-13T09:59:35.808Z,11.90
2018-04-13T10:02:03.239Z,11.80
2018-04-13T10:07:10.793Z,11.70
2018-04-13T10:09:38.241Z,11.80
2018-04-13T10:12:05.697Z,11.80
2018-04-13T10:14:33.147Z,11.70
2018-04-13T10:17:00.604Z,11.70
2018-04-13T10:19:28.057Z,11.70
2018-04-13T10:21:55.498Z,11.70
2018-04-13T10:24:23.732Z,11.50
2018-04-13T10:26:51.932Z,11.50
2018-04-13T10:29:19.387Z,11.50
2018-04-13T10:31:46.825Z,11.40
2018-04-13T10:34:14.279Z,11.40
2018-04-13T10:36:41.738Z,11.40
2018-04-13T10:39:09.183Z,11.40
2018-04-13T10:41:36.625Z,11.40
2018-04-13T10:44:04.062Z,11.40
2018-04-13T10:46:33.195Z,11.50
2018-04-13T10:49:00.667Z,11.40
2018-04-13T10:51:28.108Z,11.50
2018-04-13T10:53:55.572Z,11.50
2018-04-13T10:56:23.006Z,11.50
2018-04-13T10:58:50.435Z,11.50
2018-04-13T11:01:18.647Z,11.40
2018-04-13T11:03:46.101Z,11.40
2018-04-13T11:06:13.541Z,11.40
2018-04-13T11:08:40.981Z,11.40
2018-04-13T11:11:08.454Z,11.40
2018-04-13T11:13:35.891Z,11.50
2018-04-13T11:16:04.107Z,11.40
2018-04-13T11:18:31.568Z,11.40
2018-04-13T11:20:59.015Z,11.40
2018-04-13T11:23:26.475Z,11.30
2018-04-13T11:25:53.915Z,11.30
2018-04-13T11:28:21.421Z,11.30
2018-04-13T11:30:48.883Z,11.20
2018-04-13T11:33:16.499Z,11.30
2018-04-13T11:35:43.994Z,11.30
2018-04-13T11:38:11.510Z,11.20
2018-04-13T11:40:38.927Z,11.20
2018-04-13T11:43:07.151Z,11.20
2018-04-13T11:45:34.578Z,11.20
2018-04-13T11:48:02.052Z,11.10
2018-04-13T11:50:29.492Z,11.10
2018-04-13T11:52:56.950Z,11.10
2018-04-13T11:55:34.327Z,11.20
2018-04-13T11:58:02.540Z,11.20
2018-04-13T12:00:29.989Z,11.20
2018-04-13T12:02:57.667Z,11.30
2018-04-13T12:05:25.219Z,11.30
2018-04-13T12:07:52.688Z,11.30
2018-04-13T12:10:20.130Z,11.30
2018-04-13T12:12:47.565Z,11.30
2018-04-13T12:15:14.998Z,11.20
2018-04-13T12:17:42.470Z,11.20
2018-04-13T12:20:10.651Z,11.20
2018-04-13T12:22:38.859Z,11.20
2018-04-13T12:25:06.300Z,11.20
2018-04-13T12:27:33.743Z,11.10
2018-04-13T12:30:01.180Z,11.10
2018-04-13T12:32:28.624Z,11.10
2018-04-13T12:34:56.063Z,11.10
2018-04-13T12:37:23.503Z,11.10
2018-04-13T12:39:50.940Z,11.10
2018-04-13T12:42:18.412Z,11.10
2018-04-13T12:44:45.968Z,11.10
2018-04-13T12:47:13.456Z,11.10
2018-04-13T12:49:41.662Z,11.30
2018-04-13T12:52:09.874Z,11.40
2018-04-13T12:54:37.649Z,11.40
2018-04-13T12:57:04.805Z,11.60
2018-04-13T12:59:33.374Z,11.70
2018-04-13T13:02:00.783Z,11.70
2018-04-13T13:04:28.222Z,11.70
2018-04-13T13:06:55.666Z,11.60
2018-04-13T13:09:23.132Z,11.70
2018-04-13T13:11:50.579Z,11.70
2018-04-13T13:14:18.013Z,11.50
2018-04-13T13:16:45.451Z,11.50
2018-04-13T13:19:12.899Z,11.40
2018-04-13T13:21:41.095Z,11.40
2018-04-13T13:24:08.548Z,11.40
2018-04-13T13:26:35.990Z,11.50
2018-04-13T13:29:04.179Z,11.70
2018-04-13T13:31:31.620Z,11.70
2018-04-13T13:33:59.822Z,12.00
2018-04-13T13:36:27.243Z,12.00
2018-04-13T13:38:55.476Z,12.10
2018-04-13T13:41:22.919Z,12.10
2018-04-13T13:43:50.357Z,12.10
2018-04-13T13:46:17.786Z,12.10
2018-04-13T13:48:45.223Z,12.10
2018-04-13T13:51:14.179Z,12.20
2018-04-13T13:53:41.611Z,12.20
2018-04-13T13:56:09.044Z,12.20
2018-04-13T13:58:36.488Z,12.40
2018-04-13T14:01:03.951Z,12.30
2018-04-13T14:03:31.387Z,12.40
2018-04-13T14:05:58.844Z,12.40
2018-04-13T14:08:26.299Z,12.20
2018-04-13T14:10:53.728Z,12.20
2018-04-13T14:13:21.169Z,12.10
2018-04-13T14:15:48.610Z,12.30
2018-04-13T14:18:16.802Z,12.30
2018-04-13T14:20:44.255Z,12.30
2018-04-13T14:23:11.833Z,12.40
2018-04-13T14:25:39.583Z,12.40
2018-04-13T14:28:07.080Z,12.40
2018-04-13T14:30:34.492Z,12.50
2018-04-13T14:33:01.918Z,12.50
2018-04-13T14:35:29.360Z,12.40
2018-04-13T14:37:56.811Z,12.30
2018-04-13T14:40:24.259Z,12.40
2018-04-13T14:42:51.695Z,12.40
2018-04-13T14:45:19.131Z,12.50
2018-04-13T14:47:47.332Z,12.40
2018-04-13T14:50:14.783Z,12.40
2018-04-13T14:52:42.211Z,12.40
2018-04-13T14:55:10.434Z,12.30
2018-04-13T14:57:37.878Z,12.30
2018-04-13T15:00:05.326Z,12.20
2018-04-13T15:02:32.770Z,12.20
2018-04-13T15:05:00.960Z,12.20
2018-04-13T15:07:28.391Z,12.10
2018-04-13T15:09:57.510Z,12.20
2018-04-13T15:12:24.979Z,12.20
2018-04-13T15:14:52.411Z,12.30
2018-04-13T15:17:19.841Z,12.20
2018-04-13T15:19:47.289Z,12.30
2018-04-13T15:22:14.726Z,12.40
2018-04-13T15:24:42.171Z,12.40
2018-04-13T15:27:09.639Z,12.40
2018-04-13T15:29:37.067Z,12.40
2018-04-13T15:32:04.516Z,12.50
2018-04-13T15:34:31.956Z,12.60
2018-04-13T15:37:00.174Z,12.60
2018-04-13T15:39:27.607Z,12.60
2018-04-13T15:41:55.051Z,12.70
2018-04-13T15:44:22.488Z,12.70
2018-04-13T15:46:50.529Z,12.80
2018-04-13T15:49:17.959Z,12.90
2018-04-13T15:51:45.404Z,12.80
2018-04-13T15:54:13.608Z,12.90
2018-04-13T15:56:41.052Z,12.90
2018-04-13T15:59:08.488Z,13.10
2018-04-13T16:01:35.990Z,13.10
2018-04-13T16:04:04.148Z,13.30
2018-04-13T16:06:31.600Z,13.30
2018-04-13T16:08:59.518Z,13.40
2018-04-13T16:11:26.951Z,13.50
2018-04-13T16:13:54.383Z,13.60
2018-04-13T16:16:21.851Z,13.80
2018-04-13T16:18:49.264Z,13.90
2018-04-13T16:21:16.708Z,14.00
2018-04-13T16:23:44.908Z,14.20
2018-04-13T16:26:12.384Z,14.20
2018-04-13T16:28:39.815Z,14.50
2018-04-13T16:31:08.302Z,14.80
2018-04-13T16:33:35.877Z,14.80
2018-04-13T16:36:03.311Z,15.10
2018-04-13T16:38:31.514Z,15.50
2018-04-13T16:40:58.953Z,15.50
2018-04-13T16:43:26.402Z,15.70
2018-04-13T16:45:54.583Z,16.30
2018-04-13T16:48:22.021Z,16.30
2018-04-13T16:50:50.219Z,16.90
2018-04-13T16:53:17.667Z,16.80
2018-04-13T16:55:45.124Z,17.00
2018-04-13T16:58:12.570Z,17.30
2018-04-13T17:00:40.780Z,17.90
2018-04-13T17:03:08.217Z,17.90
2018-04-13T17:05:35.639Z,18.30
2018-04-13T17:08:03.078Z,18.80
2018-04-13T17:10:30.502Z,19.10
2018-04-13T17:12:57.956Z,19.50
2018-04-13T17:15:25.371Z,19.90
2018-04-13T17:17:53.589Z,17.80
2018-04-13T17:20:21.019Z,17.80
2018-04-13T17:22:49.221Z,15.70
2018-04-13T17:25:17.436Z,15.10
2018-04-13T17:27:44.871Z,15.10
2018-04-13T17:30:12.307Z,14.70
2018-04-13T17:32:39.749Z,14.40
2018-04-13T17:35:07.261Z,14.20
2018-04-13T17:37:34.692Z,13.90
2018-04-13T17:40:02.127Z,13.60
2018-04-13T17:42:29.570Z,13.40
2018-04-13T17:44:57.010Z,13.20
2018-04-13T17:47:25.223Z,13.10
2018-04-13T17:49:52.650Z,13.00
2018-04-13T17:52:20.859Z,12.80
2018-04-13T17:54:48.308Z,12.80
2018-04-13T17:57:15.750Z,12.70
2018-04-13T17:59:43.202Z,12.60
2018-04-13T18:02:11.426Z,12.40
2018-04-13T18:04:38.881Z,12.40
2018-04-13T18:07:06.329Z,12.20
2018-04-13T18:09:33.768Z,12.20
2018-04-13T18:12:01.192Z,12.10
2018-04-13T18:14:29.428Z,11.80
2018-04-13T18:16:56.858Z,11.90
2018-04-13T18:19:24.314Z,11.80
2018-04-13T18:21:51.748Z,11.70
2018-04-13T18:24:19.939Z,11.40
2018-04-13T18:26:47.414Z,11.40
2018-04-13T18:29:15.597Z,11.30
2018-04-13T18:31:43.031Z,11.30
2018-04-13T18:34:10.465Z,11.20
2018-04-13T18:36:38.667Z,11.10
2018-04-13T18:39:06.094Z,11.00
2018-04-13T18:41:34.291Z,11.00
2018-04-13T18:44:01.728Z,11.00
2018-04-13T18:46:29.935Z,10.90
2018-04-13T18:48:57.416Z,10.80
2018-04-13T18:51:24.859Z,10.80
2018-04-13T18:53:52.298Z,10.80
2018-04-13T18:56:19.729Z,10.70
2018-04-13T18:58:47.946Z,10.60
2018-04-13T19:01:15.400Z,10.60
2018-04-13T19:03:42.838Z,10.60
2018-04-13T19:06:10.321Z,10.50
2018-04-13T19:08:37.760Z,10.50
2018-04-13T19:11:05.203Z,10.30
2018-04-13T19:13:32.627Z,10.40
2018-04-13T19:16:00.069Z,10.40
2018-04-13T19:18:27.495Z,10.40
2018-04-13T19:20:55.054Z,10.30
2018-04-13T19:23:22.474Z,10.30
2018-04-13T19:25:50.690Z,10.30
2018-04-13T19:28:18.163Z,10.30
2018-04-13T19:30:45.607Z,10.30
2018-04-13T19:33:13.055Z,10.30
2018-04-13T19:35:40.509Z,10.30
2018-04-13T19:38:07.996Z,10.20
2018-04-13T19:40:35.440Z,10.20
2018-04-13T19:43:02.899Z,10.20
2018-04-13T19:45:30.507Z,10.20
2018-04-13T19:47:57.889Z,10.10
2018-04-13T19:50:25.361Z,10.10
2018-04-13T19:52:52.791Z,10.10
2018-04-13T19:55:20.994Z,10.10
2018-04-13T19:57:48.440Z,10.00
2018-04-13T20:00:15.868Z,9.90
2018-04-13T20:02:45.104Z,9.50
2018-04-13T20:05:13.055Z,9.50
2018-04-13T20:07:40.547Z,9.60
2018-04-13T20:10:07.976Z,9.50
2018-04-13T20:12:35.445Z,9.40
2018-04-13T20:15:02.936Z,9.60
2018-04-13T20:17:30.392Z,9.70
2018-04-13T20:19:57.835Z,9.80
2018-04-13T20:22:25.278Z,9.80
2018-04-13T20:24:53.473Z,9.80
2018-04-13T20:27:20.917Z,9.70
2018-04-13T20:29:48.352Z,9.70
2018-04-13T20:32:15.794Z,9.70
2018-04-13T20:34:43.992Z,9.60
2018-04-13T20:37:11.428Z,9.60
2018-04-13T20:39:38.860Z,9.60
2018-04-13T20:42:06.366Z,9.60
2018-04-13T20:44:33.800Z,9.50
2018-04-13T20:47:02.638Z,9.20
2018-04-13T20:49:30.059Z,9.20
2018-04-13T20:51:57.518Z,9.10
2018-04-13T20:54:24.951Z,9.10
2018-04-13T20:56:53.175Z,9.30
2018-04-13T20:59:20.622Z,9.20
2018-04-13T21:01:48.040Z,9.20
2018-04-13T21:04:16.241Z,9.30
2018-04-13T21:06:43.695Z,9.30
2018-04-13T21:09:11.655Z,9.20
2018-04-13T21:11:39.107Z,9.00
2018-04-13T21:14:07.306Z,9.00
2018-04-13T21:16:34.735Z,9.00
2018-04-13T21:19:02.192Z,8.90
2018-04-13T21:21:30.384Z,9.00
2018-04-13T21:23:57.819Z,9.00
2018-04-13T21:26:26.047Z,9.10
2018-04-13T21:28:53.480Z,9.00
2018-04-13T21:31:21.543Z,9.00
2018-04-13T21:33:49.000Z,9.10
2018-04-13T21:36:16.430Z,9.10
2018-04-13T21:38:44.632Z,9.00
2018-04-13T21:41:12.066Z,9.00
2018-04-13T21:43:40.273Z,9.00
2018-04-13T21:46:07.716Z,9.00
2018-04-13T21:48:35.894Z,8.90
2018-04-13T21:51:03.329Z,8.90
2018-04-13T21:53:31.567Z,8.80
2018-04-13T21:55:58.970Z,8.80
2018-04-13T21:58:26.414Z,8.80
2018-04-13T22:00:54.628Z,8.70
2018-04-13T22:03:22.059Z,8.70
2018-04-13T22:05:49.500Z,8.60
2018-04-13T22:08:17.689Z,8.50
2018-04-13T22:10:45.127Z,8.50
2018-04-13T22:13:25.282Z,8.50
2018-04-13T22:15:53.494Z,8.50
2018-04-13T22:18:20.945Z,8.40
2018-04-13T22:20:49.138Z,8.50
2018-04-13T22:23:16.578Z,8.50
2018-04-13T22:25:44.487Z,8.50
2018-04-13T22:28:11.951Z,8.40
2018-04-13T22:30:39.388Z,8.40
2018-04-13T22:33:06.821Z,8.50
2018-04-13T22:35:34.249Z,8.40
2018-04-13T22:38:02.467Z,8.50
2018-04-13T22:40:29.907Z,8.50
2018-04-13T22:42:57.397Z,8.50
2018-04-13T22:45:24.857Z,8.50
2018-04-13T22:47:53.295Z,8.40
2018-04-13T22:50:20.743Z,8.40
2018-04-13T22:52:48.943Z,8.30
2018-04-13T22:55:16.385Z,8.30
2018-04-13T22:57:43.819Z,8.30
2018-04-13T23:00:12.031Z,8.30
2018-04-13T23:02:39.482Z,8.30
2018-04-13T23:05:07.009Z,8.20
2018-04-13T23:07:35.212Z,8.30
2018-04-13T23:10:03.491Z,8.20
2018-04-13T23:12:30.915Z,8.20
2018-04-13T23:14:59.130Z,8.10
2018-04-13T23:17:26.553Z,8.20
2018-04-13T23:19:54.748Z,8.00
2018-04-13T23:22:34.226Z,8.00
2018-04-13T23:25:01.684Z,8.00
2018-04-13T23:27:29.118Z,8.00
2018-04-13T23:29:56.540Z,8.00
2018-04-13T23:32:24.749Z,8.00
2018-04-13T23:34:52.180Z,8.00
2018-04-13T23:37:19.620Z,8.00
2018-04-13T23:39:47.812Z,7.90
2018-04-13T23:42:15.574Z,7.90
2018-04-13T23:44:43.793Z,8.00
2018-04-13T23:47:11.217Z,7.90
2018-04-13T23:49:38.661Z,8.00
2018-04-13T23:52:06.859Z,8.00
2018-04-13T23:54:34.282Z,8.00
2018-04-13T23:57:02.488Z,8.00
2018-04-13T23:59:29.926Z,8.00
